Wadena, MN (56482)

9:51 PM CDT on July 10, 2014 (GMT -0500)
Wadena Municipal (KADC) Elev 1371 ft | 46.45 °N, 95.21 °W | Change Station

Current weather conditions updated 17 minutes ago

Overcast
Overcast
70 °F
Feels Like 70 °F
N
4
Wind Variable Wind from South

Tomorrow is forecast to be Warmer than today.

Today
High -- | Low -- °F
--% Chance of Precip.
Yesterday
High -- | Low -- °F
Precip. -- in
5:38 AM 9:13 PM
Waxing Gibbous, 97% visible
Pressure 29.90 in
Visibility 10.0 miles
Clouds Scattered Clouds 4800 ft
Mostly Cloudy 5500 ft
Overcast 7500 ft
Dew Point 66 °F
Humidity 88%
Rainfall 0.02 in
Snow Depth Not available.
UV 0 out of 12
Pollen 4.50 out of 12
Air Quality Not available.
Flu Activity Sporadic
METAR KADC 110234Z AUTO 17003KT 10SM SCT048 BKN055 OVC075 21/19 A2990 RMK AO2 P0001

More Conditions Fewer Conditions

Pressure 29.90 in
Visibility 10.0 miles
Clouds Scattered Clouds 4800 ft
Mostly Cloudy 5500 ft
Overcast 7500 ft
Dew Point 66 °F
Humidity 88%
Rainfall 0.02 in
Snow Depth Not available.
UV 0 out of 12
Pollen 4.50 out of 12
Air Quality Not available.
Flu Activity Sporadic
METAR KADC 110234Z AUTO 17003KT 10SM SCT048 BKN055 OVC075 21/19 A2990 RMK AO2 P0001

More Conditions Fewer Conditions

10-Day Weather Forecast

Almanac

Astronomy

Jul. 10, 2014 Rise Set
Actual Time 5:38 AM CDT 9:13 PM CDT
Civil Twilight 5:00 AM CDT 9:50 PM CDT
Nautical Twilight 4:09 AM CDT 10:41 PM CDT
Astronomical Twilight 3:01 AM CDT 11:48 PM CDT
Moon 7:23 PM CDT (7/10) 3:54 AM CDT (7/10)
Length of Visible Light 16h 50m
Length of Day
15h 34m
Tomorrow will be 1m 28s shorter.
Waxing Gibbous, 97% of the Moon is Illuminated
Today
Waxing Gibbous
Jul 12
Full
Jul 18
Last Quarter
Jul 26
New
Aug 3
First Quarter

Today's Extremes

State Highs State Lows

Community

WunderPhotos

Upload Photos

1,732,347 photos uploaded!

Nearby

Snow Depth

Station Depth Elevation
No new snow has been reported.

Earthquake Activity

City Distance Mag. Time & Date
No recent earthquake activity has been reported nearby.
Minimum magnitude displayed is 2.5.

Coastal Water Temperatures

Place Temperature
No Stations Reporting

Nearby Weather Stations

Station Location Temp. Heat Index Dew Point Humidity Wind Precip. Elev Updated Type
APRSWXNET Vining MN , Vining, MN 72 °F 71 °F 67 °F 84% SSE  at  0 mph 0.01 in / hr 1561 ft 9:07 PM CDT MADIS
Leader, MN 72.3 °F 71 °F 67 °F 84% West  at  2.3 mph 0.00 in / hr 1330 ft 9:51 PM CDT Rapid Fire
SE Perham, Perham, MN 69.6 °F - 62 °F 76% SW  at  4.0 mph 0.16 in / hr 1365 ft 9:50 PM CDT Normal

Show More Stations Show Fewer Stations